Time;durP1;ratioP1;P1;durP2;ratioP2;P2;SDS_P1;SDS_P2;PMS_P1;PMS_P2;Temp;Humidity;BMP_temperature;BMP_pressure;BME280_temperature;BME280_humidity;BME280_pressure;Samples;Min_cycle;Max_cycle;Signal;HPM_P1;HPM_P2
2023/10/12 00:00:27;;;;;;;17.90;4.03;;;;;;;18.51;76.27;100894.47;5063761;28;20024;-67
2023/10/12 00:02:53;;;;;;;14.52;4.20;;;;;;;18.55;76.32;100885.97;5079386;28;20513;-67
2023/10/12 00:05:19;;;;;;;12.82;4.65;;;;;;;18.48;76.25;100875.50;5063854;28;20031;-67
2023/10/12 00:07:49;;;;;;;13.02;4.28;;;;;;;18.62;76.14;100873.63;5060735;28;20447;-67
2023/10/12 00:12:45;;;;;;;15.60;4.03;;;;;;;18.56;76.26;100868.41;5081439;28;20093;-68
2023/10/12 00:15:38;;;;;;;15.27;3.90;;;;;;;18.59;75.95;100865.34;5077368;28;20114;-67
2023/10/12 00:18:08;;;;;;;14.95;4.43;;;;;;;18.49;76.51;100857.91;5071474;28;20159;-67
2023/10/12 00:20:37;;;;;;;13.35;4.05;;;;;;;18.47;76.84;100860.75;5080925;28;20036;-67
2023/10/12 00:23:10;;;;;;;15.05;4.18;;;;;;;18.52;76.45;100865.41;5075674;28;20061;-67
2023/10/12 00:25:45;;;;;;;9.27;3.55;;;;;;;18.47;77.15;100858.13;5062068;28;20039;-67
2023/10/12 00:28:13;;;;;;;15.38;3.85;;;;;;;18.33;78.46;100853.09;5079444;28;20044;-67
2023/10/12 00:30:41;;;;;;;15.57;4.28;;;;;;;18.39;79.30;100854.94;5077003;28;20379;-67
2023/10/12 00:33:08;;;;;;;14.73;4.40;;;;;;;18.34;79.59;100866.03;5058106;28;20512;-67
2023/10/12 00:35:37;;;;;;;16.55;3.45;;;;;;;18.26;80.45;100868.88;5065127;28;20028;-67
2023/10/12 00:38:17;;;;;;;16.50;4.05;;;;;;;18.16;80.59;100886.84;5064351;28;20046;-67
2023/10/12 00:40:57;;;;;;;9.50;4.00;;;;;;;18.27;79.90;100886.22;5063214;28;20039;-66
2023/10/12 00:43:23;;;;;;;11.38;3.63;;;;;;;18.19;80.45;100884.63;5080025;28;20081;-67
2023/10/12 00:45:49;;;;;;;18.15;4.47;;;;;;;18.31;80.05;100895.34;5080600;28;20054;-67
2023/10/12 00:48:16;;;;;;;9.45;4.05;;;;;;;18.17;79.43;100905.03;5086076;28;20036;-67
2023/10/12 00:50:46;;;;;;;13.07;4.57;;;;;;;18.08;79.82;100901.00;5067622;28;20059;-67
2023/10/12 00:53:55;;;;;;;10.20;4.00;;;;;;;18.13;78.84;100903.03;5064831;28;20071;-68
2023/10/12 00:56:01;;;;;;;8.57;3.85;;;;;;;18.11;78.44;100913.72;5055477;28;20040;-67
2023/10/12 00:58:27;;;;;;;11.75;4.07;;;;;;;18.17;78.33;100909.47;5067938;28;20063;-67
2023/10/12 01:00:53;;;;;;;12.23;4.00;;;;;;;18.07;78.90;100902.81;5053291;28;20074;-67
2023/10/12 01:03:30;;;;;;;17.33;3.92;;;;;;;18.13;78.09;100910.91;5063735;28;20044;-67
2023/10/12 01:08:46;;;;;;;10.48;3.65;;;;;;;18.15;78.04;100927.25;5060283;28;20032;-67
2023/10/12 01:11:36;;;;;;;17.55;4.35;;;;;;;18.07;78.57;100939.56;5084149;28;20032;-67
2023/10/12 01:16:44;;;;;;;10.98;4.32;;;;;;;17.88;80.01;100937.72;5065628;28;20024;-67
2023/10/12 01:19:10;;;;;;;11.93;4.15;;;;;;;17.85;82.06;100936.31;5061936;28;20055;-67
2023/10/12 01:21:36;;;;;;;8.38;4.50;;;;;;;17.80;82.39;100925.59;5065652;28;20399;-67
2023/10/12 01:24:14;;;;;;;11.25;4.22;;;;;;;17.69;84.54;100940.09;5063287;28;20073;-66
2023/10/12 01:26:48;;;;;;;16.27;4.65;;;;;;;17.53;85.96;100932.59;5060178;28;20044;-67
2023/10/12 01:29:20;;;;;;;13.15;4.25;;;;;;;17.50;86.77;100927.78;5081072;28;20032;-67
2023/10/12 01:32:09;;;;;;;11.13;4.68;;;;;;;17.42;87.64;100935.81;5080548;28;20035;-67
2023/10/12 01:34:38;;;;;;;14.77;4.80;;;;;;;17.36;88.66;100947.09;5048487;28;20036;-67
2023/10/12 01:37:23;;;;;;;18.90;4.50;;;;;;;17.24;89.18;100955.50;5063688;28;20036;-67
2023/10/12 01:39:56;;;;;;;13.60;5.00;;;;;;;17.27;89.67;100970.84;5060741;28;20032;-67
2023/10/12 01:42:26;;;;;;;16.40;4.30;;;;;;;17.19;90.25;100976.25;5064744;28;20506;-67
2023/10/12 01:44:51;;;;;;;13.75;4.63;;;;;;;17.14;91.15;100981.28;5063880;28;20395;-67
2023/10/12 01:47:17;;;;;;;13.75;4.47;;;;;;;17.23;90.23;100980.06;5071875;28;20038;-67
2023/10/12 01:49:45;;;;;;;13.68;5.30;;;;;;;17.14;91.02;100978.66;5065760;28;20506;-67
2023/10/12 01:52:11;;;;;;;10.48;5.10;;;;;;;17.07;92.06;100983.06;5065392;28;20024;-67
2023/10/12 01:54:42;;;;;;;15.93;4.97;;;;;;;17.01;93.82;100994.28;5064285;28;20036;-67
2023/10/12 01:57:09;;;;;;;13.75;5.15;;;;;;;16.99;94.49;101004.97;5065139;28;20039;-66
2023/10/12 01:59:35;;;;;;;13.25;5.20;;;;;;;16.99;95.92;100998.91;5046364;28;20422;-67
2023/10/12 02:02:13;;;;;;;10.30;5.13;;;;;;;16.89;96.17;101007.91;5066807;28;20048;-66
2023/10/12 02:04:40;;;;;;;12.27;5.80;;;;;;;16.93;96.62;101006.56;5066380;28;20509;-67
2023/10/12 02:07:06;;;;;;;16.10;6.13;;;;;;;16.68;98.36;101010.59;5061951;28;20040;-67
2023/10/12 02:09:34;;;;;;;16.42;6.18;;;;;;;16.70;98.27;101034.75;5060160;28;20037;-67
2023/10/12 02:12:09;;;;;;;13.30;5.85;;;;;;;16.58;99.81;101024.00;5082581;28;20145;-67
2023/10/12 02:14:39;;;;;;;14.48;6.07;;;;;;;16.54;100.00;101025.41;5076204;28;20056;-67
2023/10/12 02:17:05;;;;;;;12.55;5.93;;;;;;;16.46;100.00;101026.34;5048129;28;20393;-67
2023/10/12 02:19:42;;;;;;;12.27;6.00;;;;;;;16.48;100.00;101028.75;5047719;28;20048;-67
2023/10/12 02:22:19;;;;;;;14.05;6.30;;;;;;;16.29;100.00;101027.59;5086477;28;20512;-66
2023/10/12 02:24:58;;;;;;;21.33;7.53;;;;;;;16.32;100.00;101028.03;5048702;28;20039;-66
2023/10/12 02:27:24;;;;;;;13.15;6.57;;;;;;;16.22;100.00;101013.63;5083443;28;20027;-67
2023/10/12 02:29:53;;;;;;;12.15;6.45;;;;;;;16.22;100.00;101030.16;5064565;28;20044;-67
2023/10/12 02:32:24;;;;;;;20.83;7.65;;;;;;;16.19;100.00;101024.50;5064766;28;20119;-66
2023/10/12 02:34:55;;;;;;;13.95;7.03;;;;;;;16.12;100.00;101027.88;5067459;28;20069;-66
2023/10/12 02:37:24;;;;;;;15.77;7.18;;;;;;;16.11;100.00;101014.97;5066656;28;20387;-67
2023/10/12 02:39:53;;;;;;;20.05;7.38;;;;;;;16.12;100.00;101017.41;5065635;28;20467;-67
2023/10/12 02:42:22;;;;;;;18.98;8.32;;;;;;;16.09;100.00;101023.00;5066788;28;20074;-66
2023/10/12 02:47:30;;;;;;;13.23;7.22;;;;;;;16.10;100.00;101031.63;5062418;28;20123;-66
2023/10/12 02:50:21;;;;;;;23.38;8.25;;;;;;;16.09;100.00;101035.28;5049552;28;20106;-67
2023/10/12 02:52:47;;;;;;;20.13;7.50;;;;;;;16.08;100.00;101038.88;5081608;28;20132;-67
2023/10/12 02:58:07;;;;;;;22.90;7.85;;;;;;;16.00;100.00;101023.31;5064490;28;20126;-67
2023/10/12 03:00:45;;;;;;;12.48;7.82;;;;;;;15.94;100.00;101012.59;5086377;28;20379;-67
2023/10/12 03:06:01;;;;;;;14.90;8.13;;;;;;;15.87;100.00;100988.16;5063995;28;20032;-67
2023/10/12 03:08:30;;;;;;;14.63;7.13;;;;;;;15.81;100.00;100975.84;5066361;28;20036;-67
2023/10/12 03:13:35;;;;;;;17.98;8.25;;;;;;;15.74;100.00;100957.47;5066700;28;20050;-67
2023/10/12 03:18:44;;;;;;;21.88;7.20;;;;;;;15.70;100.00;100956.19;5066775;28;20032;-66
2023/10/12 03:21:14;;;;;;;18.60;8.00;;;;;;;15.71;100.00;100963.06;5083867;28;20039;-67
2023/10/12 03:23:41;;;;;;;17.70;8.75;;;;;;;15.72;100.00;100974.31;5084855;28;20146;-67
2023/10/12 03:26:24;;;;;;;19.45;8.63;;;;;;;15.82;100.00;101000.19;5064575;28;20150;-67
2023/10/12 03:29:07;;;;;;;18.95;8.18;;;;;;;15.73;100.00;101010.75;5067501;28;20032;-67
2023/10/12 03:34:29;;;;;;;18.67;8.48;;;;;;;15.54;100.00;101019.16;5080657;28;20047;-66
2023/10/12 03:36:58;;;;;;;19.63;9.20;;;;;;;15.48;100.00;101004.19;5065015;28;20043;-67
2023/10/12 03:42:11;;;;;;;14.55;7.80;;;;;;;15.44;100.00;100988.09;5080699;28;20115;-66
2023/10/12 03:52:27;;;;;;;20.92;8.85;;;;;;;15.42;100.00;100968.38;5065968;28;20578;-66
2023/10/12 04:05:17;;;;;;;16.35;8.10;;;;;;;15.47;100.00;100956.38;5086073;28;20039;-67
2023/10/12 04:08:11;;;;;;;12.73;7.20;;;;;;;15.48;100.00;100955.38;5080825;28;20379;-67
2023/10/12 04:11:21;;;;;;;14.77;7.43;;;;;;;15.49;100.00;100959.59;5084342;28;20032;-67
2023/10/12 04:18:33;;;;;;;19.13;8.85;;;;;;;15.50;100.00;100968.25;5064293;28;20076;-67
2023/10/12 04:20:59;;;;;;;21.58;8.40;;;;;;;15.48;100.00;100960.63;5081111;28;20032;-67
2023/10/12 04:23:47;;;;;;;20.02;7.15;;;;;;;15.46;100.00;100954.72;5064292;28;20493;-67
2023/10/12 04:29:21;;;;;;;15.05;7.07;;;;;;;15.46;100.00;100977.44;5076322;28;20029;-67
2023/10/12 04:31:49;;;;;;;15.98;8.32;;;;;;;15.45;100.00;100987.09;5077223;28;20082;-67
2023/10/12 04:34:26;;;;;;;14.63;8.23;;;;;;;15.45;100.00;101000.16;5050052;28;20046;-67
2023/10/12 04:37:08;;;;;;;16.70;7.93;;;;;;;15.44;100.00;100998.53;5065595;28;20032;-67
2023/10/12 04:39:37;;;;;;;16.10;8.50;;;;;;;15.45;100.00;100999.38;5065210;28;20663;-67
2023/10/12 04:42:20;;;;;;;17.42;8.00;;;;;;;15.45;100.00;101008.00;5078070;28;20040;-67
2023/10/12 04:46:05;;;;;;;16.30;7.82;;;;;;;15.41;100.00;101009.38;5078906;28;20036;-67
2023/10/12 04:47:45;;;;;;;17.20;8.25;;;;;;;15.36;100.00;101024.78;5045579;28;20047;-67
2023/10/12 04:50:26;;;;;;;17.52;9.10;;;;;;;15.34;100.00;101026.75;5084217;28;20112;-66
2023/10/12 04:53:08;;;;;;;21.48;9.68;;;;;;;15.33;100.00;101025.13;5064370;28;20494;-67
2023/10/12 04:55:34;;;;;;;28.45;9.63;;;;;;;15.31;100.00;101027.09;5082182;28;20032;-67
2023/10/12 05:01:13;;;;;;;23.48;9.68;;;;;;;15.28;100.00;101030.91;5003540;28;20100;-67
2023/10/12 05:03:41;;;;;;;26.40;9.77;;;;;;;15.24;100.00;101023.59;5053812;28;20090;-67
2023/10/12 05:06:09;;;;;;;25.45;9.82;;;;;;;15.26;100.00;101019.03;5061723;28;20111;-67
2023/10/12 05:08:35;;;;;;;22.15;9.48;;;;;;;15.19;100.00;101018.94;5083278;28;20119;-66
2023/10/12 05:11:02;;;;;;;17.35;9.07;;;;;;;15.16;100.00;101016.66;5082933;28;20198;-67
2023/10/12 05:13:28;;;;;;;24.75;9.52;;;;;;;15.16;100.00;101009.66;5084369;28;20094;-67
2023/10/12 05:15:58;;;;;;;20.42;9.32;;;;;;;15.16;100.00;101012.28;5065241;28;20039;-67
2023/10/12 05:18:25;;;;;;;17.45;8.75;;;;;;;15.25;100.00;101006.94;5064678;28;20044;-67
2023/10/12 05:20:51;;;;;;;24.63;10.43;;;;;;;15.31;100.00;101007.03;5080150;28;20066;-67
2023/10/12 05:23:17;;;;;;;21.27;8.68;;;;;;;15.30;100.00;101010.63;5059329;28;20059;-66
2023/10/12 05:28:27;;;;;;;21.98;8.23;;;;;;;15.24;100.00;101015.75;5082222;28;20040;-67
2023/10/12 05:30:59;;;;;;;15.60;8.07;;;;;;;15.26;100.00;101019.03;5077162;28;20874;-67
2023/10/12 05:36:14;;;;;;;20.60;9.35;;;;;;;15.27;100.00;101034.50;5081743;28;20256;-67
2023/10/12 05:38:51;;;;;;;20.58;8.52;;;;;;;15.25;100.00;101035.69;5078568;28;20111;-67
2023/10/12 05:41:33;;;;;;;23.45;8.77;;;;;;;15.28;100.00;101033.53;5062576;28;20557;-67
2023/10/12 05:43:59;;;;;;;17.07;8.73;;;;;;;15.27;100.00;101044.16;5082181;28;20573;-67
2023/10/12 05:46:33;;;;;;;17.35;7.95;;;;;;;15.24;100.00;101036.66;5063521;28;20584;-66
2023/10/12 05:48:59;;;;;;;23.75;8.57;;;;;;;15.24;100.00;101039.28;5064285;28;20501;-67
2023/10/12 05:51:24;;;;;;;21.98;8.95;;;;;;;15.22;100.00;101034.25;5050434;28;20066;-67
2023/10/12 05:54:02;;;;;;;22.92;9.18;;;;;;;15.22;100.00;101036.03;5067695;28;20527;-67
2023/10/12 05:56:30;;;;;;;18.33;8.50;;;;;;;15.18;100.00;101030.34;5070433;28;20062;-67
2023/10/12 05:58:55;;;;;;;13.65;8.00;;;;;;;15.14;100.00;101045.59;5070054;28;20044;-66
2023/10/12 06:01:32;;;;;;;18.40;8.88;;;;;;;15.18;100.00;101046.84;5066723;28;20371;-67
2023/10/12 06:04:05;;;;;;;17.02;8.23;;;;;;;15.18;100.00;101048.63;5085830;28;20094;-67
2023/10/12 06:06:41;;;;;;;18.05;8.52;;;;;;;15.15;100.00;101056.84;5088831;28;20036;-67
2023/10/12 06:09:20;;;;;;;20.00;8.45;;;;;;;15.20;100.00;101064.97;5083055;28;20129;-66
2023/10/12 06:11:47;;;;;;;18.90;8.80;;;;;;;15.24;100.00;101060.16;5054741;28;20491;-67
2023/10/12 06:14:14;;;;;;;18.33;7.63;;;;;;;15.19;100.00;101056.28;5084428;28;20125;-67
2023/10/12 06:16:45;;;;;;;17.13;8.07;;;;;;;15.17;100.00;101066.13;5069885;28;20031;-67
2023/10/12 06:21:51;;;;;;;19.27;8.52;;;;;;;15.16;100.00;101064.50;5087283;28;20032;-65
2023/10/12 06:24:35;;;;;;;21.67;9.05;;;;;;;15.22;100.00;101059.53;5083856;28;20028;-66
2023/10/12 06:27:22;;;;;;;18.65;8.00;;;;;;;15.19;100.00;101066.75;5088197;28;20105;-66
2023/10/12 06:30:03;;;;;;;15.75;7.80;;;;;;;15.18;100.00;101072.97;5066490;28;20032;-67
2023/10/12 06:32:31;;;;;;;22.52;8.75;;;;;;;15.14;100.00;101074.34;5086313;28;20032;-68
2023/10/12 06:40:38;;;;;;;21.58;9.95;;;;;;;15.19;100.00;101069.34;5087917;28;20089;-67
2023/10/12 06:45:52;;;;;;;17.30;8.45;;;;;;;15.16;100.00;101076.75;5084862;28;20032;-67
2023/10/12 06:48:44;;;;;;;24.48;9.27;;;;;;;15.17;100.00;101081.78;5082193;28;20494;-67
2023/10/12 06:51:13;;;;;;;18.50;8.38;;;;;;;15.16;100.00;101074.97;5085570;28;20035;-67
2023/10/12 06:53:41;;;;;;;17.42;8.55;;;;;;;15.13;100.00;101077.91;5062132;28;20032;-67
2023/10/12 07:04:15;;;;;;;21.65;9.45;;;;;;;15.20;100.00;101096.31;5084958;28;20051;-66
2023/10/12 07:06:59;;;;;;;20.27;9.07;;;;;;;15.21;100.00;101100.53;5067713;28;20055;-67
2023/10/12 07:09:39;;;;;;;21.40;9.27;;;;;;;15.31;100.00;101098.47;5082449;28;20036;-67
2023/10/12 07:12:33;;;;;;;23.05;9.52;;;;;;;15.31;100.00;101095.88;5070255;23;20045;-66
2023/10/12 07:14:59;;;;;;;21.65;8.65;;;;;;;15.27;100.00;101099.81;5037498;28;20057;-66
2023/10/12 07:17:32;;;;;;;15.45;8.90;;;;;;;15.24;100.00;101113.25;5041968;28;20033;-67
2023/10/12 07:19:58;;;;;;;17.00;9.30;;;;;;;15.32;100.00;101105.31;5059613;28;20049;-66
2023/10/12 07:22:23;;;;;;;13.93;7.60;;;;;;;15.36;100.00;101101.34;5045200;28;20067;-66
2023/10/12 07:24:56;;;;;;;16.20;8.23;;;;;;;15.32;100.00;101113.16;5058975;28;20032;-67
2023/10/12 07:27:26;;;;;;;19.05;8.38;;;;;;;15.36;100.00;101118.81;5058976;28;20024;-66
2023/10/12 07:30:10;;;;;;;18.55;8.90;;;;;;;15.33;100.00;101125.22;5042981;28;20045;-66
2023/10/12 07:32:39;;;;;;;25.15;10.93;;;;;;;15.29;100.00;101110.88;5044067;28;20397;-67
2023/10/12 07:35:53;;;;;;;20.25;8.55;;;;;;;15.40;100.00;101116.66;5039665;28;20083;-66
2023/10/12 07:37:51;;;;;;;16.55;8.57;;;;;;;15.36;100.00;101124.84;5011389;28;20040;-66
2023/10/12 07:40:22;;;;;;;18.95;8.63;;;;;;;15.42;100.00;101117.28;5062764;28;20097;-66
2023/10/12 07:42:48;;;;;;;16.77;8.52;;;;;;;15.40;100.00;101121.91;5078092;28;20048;-67
2023/10/12 07:45:18;;;;;;;19.52;8.77;;;;;;;15.35;100.00;101120.63;5081794;28;20560;-66
2023/10/12 07:47:58;;;;;;;19.55;8.50;;;;;;;15.35;100.00;101123.25;5079591;28;20371;-67
2023/10/12 07:50:28;;;;;;;18.90;8.90;;;;;;;15.38;100.00;101135.13;5046860;28;20054;-66
2023/10/12 07:53:07;;;;;;;19.98;8.80;;;;;;;15.41;100.00;101132.16;5062824;28;20146;-67
2023/10/12 07:55:41;;;;;;;17.25;8.07;;;;;;;15.41;100.00;101136.56;5065286;28;20040;-66
2023/10/12 07:58:12;;;;;;;23.60;8.25;;;;;;;15.41;100.00;101129.56;5066047;28;20411;-66
2023/10/12 08:00:41;;;;;;;21.02;8.95;;;;;;;15.44;100.00;101123.16;5076998;28;20036;-66
2023/10/12 08:03:18;;;;;;;19.17;8.27;;;;;;;15.49;100.00;101126.03;5084335;28;20409;-66
2023/10/12 08:05:56;;;;;;;19.00;9.05;;;;;;;15.55;100.00;101118.28;5084912;28;20051;-66
2023/10/12 08:08:34;;;;;;;21.40;8.38;;;;;;;15.67;100.00;101130.88;5081073;28;20375;-66
2023/10/12 08:11:09;;;;;;;22.33;8.98;;;;;;;15.60;100.00;101132.63;5060544;28;20531;-66
2023/10/12 08:13:47;;;;;;;17.80;8.68;;;;;;;15.55;100.00;101125.31;5079490;28;20027;-66
2023/10/12 08:16:16;;;;;;;22.42;9.65;;;;;;;15.60;100.00;101133.44;5061340;28;20633;-66
2023/10/12 08:24:09;;;;;;;17.33;7.90;;;;;;;15.56;100.00;101135.59;5080015;28;20482;-66
2023/10/12 08:29:47;;;;;;;23.42;7.65;;;;;;;15.63;100.00;101143.50;5065409;28;20069;-69
2023/10/12 08:32:15;;;;;;;13.50;7.00;;;;;;;15.67;100.00;101143.97;5083774;28;20036;-69
2023/10/12 08:34:42;;;;;;;19.33;7.03;;;;;;;15.67;100.00;101138.72;5077444;28;20123;-68
2023/10/12 08:37:18;;;;;;;18.73;7.70;;;;;;;15.73;100.00;101143.25;5062983;28;20471;-68
2023/10/12 08:45:15;;;;;;;16.20;7.93;;;;;;;15.80;100.00;101140.75;5077565;28;20522;-69
2023/10/12 08:47:48;;;;;;;15.10;7.65;;;;;;;15.85;100.00;101143.63;5062267;28;20040;-69
2023/10/12 08:52:50;;;;;;;14.88;7.35;;;;;;;15.95;100.00;101136.28;5082932;28;20039;-69
2023/10/12 08:55:19;;;;;;;16.75;7.78;;;;;;;15.93;100.00;101139.09;5066322;28;20115;-68
2023/10/12 08:58:15;;;;;;;16.20;6.50;;;;;;;15.95;100.00;101131.06;5080366;28;20060;-69
2023/10/12 09:00:44;;;;;;;13.30;6.90;;;;;;;15.92;100.00;101137.47;5062122;28;20078;-69
2023/10/12 09:05:51;;;;;;;16.98;7.03;;;;;;;16.07;100.00;101131.44;5086088;28;20054;-68
2023/10/12 09:10:49;;;;;;;17.08;8.02;;;;;;;16.18;100.00;101137.97;5081982;28;20059;-66
2023/10/12 09:13:17;;;;;;;15.82;6.57;;;;;;;16.20;100.00;101133.34;5079829;28;20103;-66
2023/10/12 09:15:45;;;;;;;18.58;7.00;;;;;;;16.24;100.00;101134.63;5085234;28;20024;-66
2023/10/12 09:18:18;;;;;;;24.08;7.30;;;;;;;16.35;100.00;101126.28;5062688;28;20123;-67
2023/10/12 09:23:28;;;;;;;16.75;6.72;;;;;;;16.51;100.00;101126.03;5083960;28;20086;-66
2023/10/12 09:28:43;;;;;;;18.77;6.75;;;;;;;16.64;100.00;101127.97;5083428;28;20106;-67
2023/10/12 09:31:13;;;;;;;20.33;6.75;;;;;;;16.78;100.00;101133.31;5067079;28;20024;-66
2023/10/12 09:33:54;;;;;;;18.45;7.03;;;;;;;16.79;100.00;101134.94;5087349;28;20040;-66
2023/10/12 09:36:22;;;;;;;16.65;7.18;;;;;;;16.80;100.00;101133.94;5084418;28;20032;-66
2023/10/12 09:38:47;;;;;;;13.98;5.72;;;;;;;16.83;100.00;101144.06;5072363;28;20032;-66
2023/10/12 09:41:19;;;;;;;13.68;6.70;;;;;;;17.05;100.00;101142.22;5087460;28;20481;-66
2023/10/12 09:43:48;;;;;;;20.45;7.55;;;;;;;17.04;100.00;101130.13;5067650;28;20566;-66
2023/10/12 09:46:17;;;;;;;18.40;7.72;;;;;;;17.03;100.00;101133.75;5083203;28;20490;-66
2023/10/12 09:48:44;;;;;;;17.80;6.57;;;;;;;17.08;100.00;101129.56;5065839;28;20101;-66
2023/10/12 09:51:17;;;;;;;15.57;7.03;;;;;;;17.13;100.00;101132.41;5068004;28;20028;-66
2023/10/12 09:53:58;;;;;;;13.70;6.70;;;;;;;17.38;100.00;101133.78;5066154;28;20059;-66
2023/10/12 09:56:45;;;;;;;12.43;6.25;;;;;;;17.39;100.00;101124.91;5051493;28;20032;-66
2023/10/12 09:59:18;;;;;;;24.75;7.80;;;;;;;17.51;100.00;101118.91;5080567;28;20594;-66
2023/10/12 10:01:50;;;;;;;17.52;6.05;;;;;;;17.55;100.00;101124.59;5068059;28;20060;-66
2023/10/12 10:04:41;;;;;;;13.93;5.90;;;;;;;17.68;100.00;101119.41;5068210;28;20521;-66
2023/10/12 10:07:25;;;;;;;18.45;6.85;;;;;;;17.74;99.57;101115.19;5068665;28;20098;-66
2023/10/12 10:09:54;;;;;;;22.73;6.32;;;;;;;17.88;98.86;101116.09;5087307;28;20531;-66
2023/10/12 10:12:23;;;;;;;14.82;5.72;;;;;;;17.88;99.20;101127.38;5088960;28;20099;-66
2023/10/12 10:14:54;;;;;;;17.60;6.50;;;;;;;18.02;100.00;101128.22;5061533;28;20657;-66
2023/10/12 10:17:46;;;;;;;15.00;6.50;;;;;;;18.00;97.17;101116.31;5068196;28;20031;-66
2023/10/12 10:23:10;;;;;;;17.08;5.85;;;;;;;18.24;98.67;101117.59;5063459;28;20048;-65
2023/10/12 10:25:43;;;;;;;16.23;5.72;;;;;;;18.35;97.79;101121.47;5070884;28;20036;-67
2023/10/12 10:28:13;;;;;;;17.63;7.13;;;;;;;18.48;97.71;101122.28;5066245;28;20481;-66
2023/10/12 10:30:49;;;;;;;14.60;6.20;;;;;;;18.48;94.45;101124.13;5084131;28;20062;-66
2023/10/12 10:33:20;;;;;;;20.02;6.30;;;;;;;18.46;94.76;101126.94;5082311;28;20039;-66
2023/10/12 10:36:17;;;;;;;14.93;6.53;;;;;;;18.40;93.67;101125.13;5062576;28;20482;-66
2023/10/12 10:38:53;;;;;;;18.88;5.60;;;;;;;18.38;94.79;101121.84;5082402;28;20032;-67
2023/10/12 10:41:46;;;;;;;19.65;6.65;;;;;;;18.34;95.81;101125.09;5084271;28;20561;-66
2023/10/12 10:44:17;;;;;;;11.93;6.13;;;;;;;18.33;95.44;101123.47;5085333;28;20036;-67
2023/10/12 10:46:54;;;;;;;13.82;5.25;;;;;;;18.25;96.46;101120.03;5085541;28;20055;-67
2023/10/12 10:49:21;;;;;;;13.98;5.38;;;;;;;18.24;94.35;101113.16;5079444;28;20456;-66
2023/10/12 10:51:48;;;;;;;16.90;6.18;;;;;;;18.22;96.12;101109.94;5080471;28;20465;-67
2023/10/12 10:54:18;;;;;;;19.50;6.95;;;;;;;18.20;96.58;101104.06;5067016;28;20068;-67
2023/10/12 10:56:47;;;;;;;9.27;5.20;;;;;;;18.37;92.74;101106.31;5083421;28;20054;-67
2023/10/12 10:59:13;;;;;;;16.60;6.30;;;;;;;18.38;94.04;101094.81;5082492;28;20028;-67
2023/10/12 11:01:46;;;;;;;14.93;6.35;;;;;;;18.40;93.54;101098.88;5083678;28;20036;-67
2023/10/12 11:04:59;;;;;;;13.55;5.35;;;;;;;18.46;93.06;101098.06;5063564;28;20024;-67
2023/10/12 11:07:03;;;;;;;16.98;6.22;;;;;;;18.34;93.65;101086.53;5067257;28;20050;-67
2023/10/12 11:09:31;;;;;;;27.13;7.00;;;;;;;18.35;93.56;101092.59;5080291;28;20064;-67
2023/10/12 11:12:00;;;;;;;12.68;6.18;;;;;;;18.42;91.71;101083.72;5065179;28;20425;-67
2023/10/12 11:14:31;;;;;;;14.73;6.25;;;;;;;18.46;92.44;101087.56;5080079;28;20047;-67
2023/10/12 11:17:00;;;;;;;18.95;7.95;;;;;;;18.46;92.84;101084.94;5068691;28;20040;-67
2023/10/12 11:19:27;;;;;;;13.45;6.47;;;;;;;18.48;92.00;101087.34;5081900;28;20703;-67
2023/10/12 11:21:52;;;;;;;15.95;6.07;;;;;;;18.61;92.02;101087.34;5062304;28;20483;-66
2023/10/12 11:24:23;;;;;;;14.82;5.85;;;;;;;18.54;92.03;101083.91;5084550;28;20100;-66
2023/10/12 11:26:57;;;;;;;16.17;5.72;;;;;;;18.51;89.86;101086.94;5066831;28;20106;-67
2023/10/12 11:29:24;;;;;;;10.75;5.47;;;;;;;18.49;89.34;101084.50;5049501;28;20040;-67
2023/10/12 11:32:10;;;;;;;21.73;6.93;;;;;;;18.50;90.99;101082.72;5054199;28;20102;-66
2023/10/12 11:34:53;;;;;;;12.43;5.03;;;;;;;18.42;91.72;101088.97;5083059;28;20039;-66
2023/10/12 11:37:20;;;;;;;10.50;5.45;;;;;;;18.39;90.07;101062.31;5080513;28;20644;-67
2023/10/12 11:39:47;;;;;;;17.25;5.90;;;;;;;18.48;89.00;101061.91;5047737;28;20613;-66
2023/10/12 11:42:13;;;;;;;11.40;4.93;;;;;;;18.45;87.05;101033.41;5081250;28;20975;-66
2023/10/12 11:44:43;;;;;;;13.50;5.78;;;;;;;18.36;87.94;101037.25;5077591;28;20074;-67
2023/10/12 11:47:37;;;;;;;12.48;5.68;;;;;;;18.26;88.40;101037.66;5061025;28;22520;-67
2023/10/12 11:50:03;;;;;;;15.20;5.47;;;;;;;18.23;88.70;101034.63;5079556;28;20047;-67
2023/10/12 11:52:34;;;;;;;19.60;6.50;;;;;;;18.28;89.45;101040.09;5079923;28;20110;-67
2023/10/12 11:55:20;;;;;;;10.23;5.28;;;;;;;18.19;91.56;101046.53;5077662;28;20071;-66
2023/10/12 11:57:59;;;;;;;14.25;5.22;;;;;;;18.23;93.53;101048.56;5059617;28;20047;-67
2023/10/12 12:00:36;;;;;;;21.27;6.72;;;;;;;18.34;93.13;101055.03;5078703;28;20119;-66
2023/10/12 12:03:03;;;;;;;23.55;9.57;;;;;;;18.28;94.49;101053.22;5063156;28;20041;-67
2023/10/12 12:05:33;;;;;;;17.45;7.20;;;;;;;18.25;96.41;101057.06;5081270;28;20103;-67
2023/10/12 12:08:13;;;;;;;13.27;5.85;;;;;;;18.28;95.21;101061.06;5082626;28;20393;-67
2023/10/12 12:10:54;;;;;;;15.07;5.47;;;;;;;18.38;96.94;101069.34;5061236;28;20550;-67
2023/10/12 12:13:20;;;;;;;14.90;5.45;;;;;;;18.28;96.59;101051.38;5079656;28;20056;-66
2023/10/12 12:15:53;;;;;;;17.38;5.68;;;;;;;18.36;97.19;101050.38;5062427;28;20044;-67
2023/10/12 12:18:19;;;;;;;11.57;4.90;;;;;;;18.31;97.35;101042.31;5064518;28;20048;-65
2023/10/12 12:20:50;;;;;;;12.60;4.85;;;;;;;18.28;96.57;101050.59;5077276;28;20041;-66
2023/10/12 12:23:22;;;;;;;11.38;4.40;;;;;;;18.30;96.62;101051.19;5048574;28;20323;-66
2023/10/12 12:25:51;;;;;;;11.48;5.55;;;;;;;18.28;96.87;101046.13;5064034;28;20496;-66
2023/10/12 12:28:18;;;;;;;18.27;5.20;;;;;;;18.28;97.98;101040.09;5078033;28;20070;-66
2023/10/12 12:30:51;;;;;;;14.65;4.72;;;;;;;18.29;98.89;101037.25;5063529;28;20063;-66
2023/10/12 12:33:17;;;;;;;9.65;4.70;;;;;;;18.33;98.39;101044.72;5083383;28;20040;-66
2023/10/12 12:35:47;;;;;;;16.75;5.28;;;;;;;18.25;99.19;101038.69;5064683;28;20055;-66
2023/10/12 12:38:51;;;;;;;12.18;4.63;;;;;;;18.20;98.04;101045.53;5078687;28;20052;-66
2023/10/12 12:41:23;;;;;;;13.80;4.97;;;;;;;18.12;99.66;101036.03;5079666;28;20074;-66
2023/10/12 12:43:49;;;;;;;12.70;4.40;;;;;;;18.08;100.00;101033.00;5062630;28;20067;-66
2023/10/12 12:46:16;;;;;;;10.43;4.90;;;;;;;18.06;100.00;101036.81;5083207;28;20374;-66
2023/10/12 12:48:45;;;;;;;12.90;4.65;;;;;;;18.08;98.66;101040.88;5082730;28;20050;-66
2023/10/12 12:51:15;;;;;;;14.10;5.30;;;;;;;18.20;97.66;101041.09;5079052;28;20059;-67
2023/10/12 12:53:42;;;;;;;14.43;5.80;;;;;;;18.04;99.27;101046.72;5082873;28;20065;-66
2023/10/12 12:56:10;;;;;;;15.23;5.28;;;;;;;18.05;97.79;101041.28;5065433;28;20028;-66
2023/10/12 12:58:36;;;;;;;21.63;5.78;;;;;;;18.06;97.12;101045.53;5085255;28;20119;-66
2023/10/12 13:01:03;;;;;;;12.60;5.15;;;;;;;17.90;97.17;101041.44;5065049;28;20194;-66
2023/10/12 13:03:29;;;;;;;18.80;6.80;;;;;;;17.84;97.43;101042.25;5049824;28;20555;-66
2023/10/12 13:05:54;;;;;;;17.67;5.90;;;;;;;17.89;97.82;101042.47;5079173;28;20085;-66
2023/10/12 13:08:22;;;;;;;16.45;5.63;;;;;;;17.89;97.56;101049.50;5081650;28;20044;-66
2023/10/12 13:10:48;;;;;;;12.40;5.50;;;;;;;17.88;98.38;101047.91;5059450;28;20034;-66
2023/10/12 13:13:13;;;;;;;16.48;5.68;;;;;;;17.93;97.98;101049.91;5063673;28;20036;-66
2023/10/12 13:15:42;;;;;;;14.23;5.60;;;;;;;17.88;98.64;101043.44;5063397;28;20042;-66
2023/10/12 13:18:14;;;;;;;12.27;5.18;;;;;;;17.94;98.50;101057.59;5079842;28;20049;-66
2023/10/12 13:20:46;;;;;;;12.63;5.00;;;;;;;17.90;98.94;101051.94;5065285;28;20133;-66
2023/10/12 13:23:17;;;;;;;12.38;5.82;;;;;;;17.93;98.15;101049.91;5080837;28;20028;-67
2023/10/12 13:25:42;;;;;;;12.80;5.20;;;;;;;17.97;98.29;101053.75;5081311;28;20028;-66